createdAt,value
2018-05-27T00:02:01.061Z,958.59
2018-05-27T00:04:27.350Z,958.61
2018-05-27T00:06:53.636Z,958.53
2018-05-27T00:09:19.936Z,958.52
2018-05-27T00:11:46.224Z,958.55
2018-05-27T00:14:12.521Z,958.57
2018-05-27T00:16:38.813Z,958.53
2018-05-27T00:19:05.111Z,958.52
2018-05-27T00:21:31.401Z,958.42
2018-05-27T00:23:57.687Z,958.32
2018-05-27T00:26:23.980Z,958.37
2018-05-27T00:28:50.268Z,958.40
2018-05-27T00:31:16.556Z,958.41
2018-05-27T00:33:42.847Z,958.36
2018-05-27T00:36:09.131Z,958.43
2018-05-27T00:38:35.423Z,958.38
2018-05-27T00:41:01.762Z,958.41
2018-05-27T00:43:28.058Z,958.41
2018-05-27T00:45:54.349Z,958.44
2018-05-27T00:48:20.640Z,958.49
2018-05-27T00:50:46.932Z,958.55
2018-05-27T00:53:13.228Z,958.57
2018-05-27T00:55:39.522Z,958.56
2018-05-27T00:58:05.817Z,958.52
2018-05-27T01:00:32.110Z,958.67
2018-05-27T01:02:58.405Z,958.61
2018-05-27T01:05:24.700Z,958.71
2018-05-27T01:07:50.987Z,958.74
2018-05-27T01:10:17.283Z,958.69
2018-05-27T01:12:43.578Z,958.67
2018-05-27T01:15:09.903Z,958.68
2018-05-27T01:17:45.498Z,958.72
2018-05-27T01:20:11.787Z,958.69
2018-05-27T01:22:38.081Z,958.62
2018-05-27T01:25:04.367Z,958.62
2018-05-27T01:27:30.664Z,958.63
2018-05-27T01:29:56.953Z,958.58
2018-05-27T01:32:23.287Z,958.59
2018-05-27T01:34:49.615Z,958.54
2018-05-27T01:37:15.909Z,958.50
2018-05-27T01:39:42.201Z,958.49
2018-05-27T01:42:08.490Z,958.46
2018-05-27T01:44:34.779Z,958.54
2018-05-27T01:47:01.075Z,958.59
2018-05-27T01:49:27.363Z,958.54
2018-05-27T01:51:53.657Z,958.49
2018-05-27T01:54:19.951Z,958.47
2018-05-27T01:56:46.240Z,958.52
2018-05-27T01:59:12.539Z,958.53
2018-05-27T02:01:38.832Z,958.59
2018-05-27T02:04:05.121Z,958.63
2018-05-27T02:06:31.430Z,958.67
2018-05-27T02:08:57.730Z,958.63
2018-05-27T02:11:24.021Z,958.64
2018-05-27T02:13:50.316Z,958.67
2018-05-27T02:16:16.610Z,958.69
2018-05-27T02:18:42.898Z,958.79
2018-05-27T02:21:09.232Z,958.72
2018-05-27T02:23:35.522Z,958.79
2018-05-27T02:26:01.860Z,958.81
2018-05-27T02:28:28.197Z,958.70
2018-05-27T02:30:54.489Z,958.76
2018-05-27T02:33:20.820Z,958.71
2018-05-27T02:35:47.115Z,958.71
2018-05-27T02:38:13.443Z,958.66
2018-05-27T02:40:39.777Z,958.67
2018-05-27T02:43:06.071Z,958.74
2018-05-27T02:45:32.361Z,958.67
2018-05-27T02:47:58.643Z,958.68
2018-05-27T02:50:24.942Z,958.61
2018-05-27T02:52:51.234Z,958.72
2018-05-27T02:55:17.562Z,958.66
2018-05-27T02:57:43.885Z,958.74
2018-05-27T03:00:10.168Z,958.64
2018-05-27T03:02:36.457Z,958.66
2018-05-27T03:05:02.756Z,958.60
2018-05-27T03:07:29.044Z,958.60
2018-05-27T03:09:55.339Z,958.69
2018-05-27T03:12:21.643Z,958.75
2018-05-27T03:14:47.949Z,958.70
2018-05-27T03:17:14.269Z,958.66
2018-05-27T03:19:40.565Z,958.64
2018-05-27T03:22:06.869Z,958.62
2018-05-27T03:24:33.163Z,958.62
2018-05-27T03:26:59.499Z,958.55
2018-05-27T03:29:25.830Z,958.55
2018-05-27T03:31:52.117Z,958.56
2018-05-27T03:34:18.451Z,958.50
2018-05-27T03:36:44.743Z,958.51
2018-05-27T03:39:11.092Z,958.53
2018-05-27T03:41:37.387Z,958.59
2018-05-27T03:44:03.679Z,958.59
2018-05-27T03:46:29.973Z,958.63
2018-05-27T03:48:56.261Z,958.60
2018-05-27T03:51:22.560Z,958.64
2018-05-27T03:53:48.853Z,958.61
2018-05-27T03:56:15.147Z,958.54
2018-05-27T03:58:41.446Z,958.57
2018-05-27T04:01:07.744Z,958.63
2018-05-27T04:03:34.044Z,958.67
2018-05-27T04:06:00.334Z,958.68
2018-05-27T04:08:26.618Z,958.72
2018-05-27T04:10:52.906Z,958.65
2018-05-27T04:13:19.209Z,958.66
2018-05-27T04:15:45.503Z,958.64
2018-05-27T04:18:11.793Z,958.61
2018-05-27T04:20:38.087Z,958.62
2018-05-27T04:23:04.384Z,958.65
2018-05-27T04:25:30.679Z,958.57
2018-05-27T04:27:56.974Z,958.54
2018-05-27T04:30:23.259Z,958.52
2018-05-27T04:32:49.564Z,958.55
2018-05-27T04:35:15.846Z,958.58
2018-05-27T04:37:42.138Z,958.58
2018-05-27T04:40:08.434Z,958.55
2018-05-27T04:42:34.730Z,958.58
2018-05-27T04:45:01.059Z,958.62
2018-05-27T04:47:27.390Z,958.59
2018-05-27T04:49:53.725Z,958.65
2018-05-27T04:52:20.014Z,958.58
2018-05-27T04:54:46.304Z,958.61
2018-05-27T04:57:12.592Z,958.59
2018-05-27T04:59:38.933Z,958.59
2018-05-27T05:02:05.217Z,958.58
2018-05-27T05:04:31.514Z,958.52
2018-05-27T05:06:57.840Z,958.49
2018-05-27T05:09:24.186Z,958.57
2018-05-27T05:11:50.457Z,958.55
2018-05-27T05:14:16.753Z,958.58
2018-05-27T05:16:43.108Z,958.64
2018-05-27T05:19:09.408Z,958.63
2018-05-27T05:21:35.700Z,958.64
2018-05-27T05:24:01.999Z,958.75
2018-05-27T05:26:28.301Z,958.65
2018-05-27T05:28:54.593Z,958.71
2018-05-27T05:31:20.899Z,958.71
2018-05-27T05:33:47.215Z,958.67
2018-05-27T05:36:13.501Z,958.68
2018-05-27T05:38:39.818Z,958.67
2018-05-27T05:41:06.108Z,958.73
2018-05-27T05:43:32.452Z,958.71
2018-05-27T05:45:58.748Z,958.77
2018-05-27T05:48:25.048Z,958.66
2018-05-27T05:50:51.343Z,958.68
2018-05-27T05:53:17.633Z,958.74
2018-05-27T05:55:43.966Z,958.62
2018-05-27T05:58:10.261Z,958.68
2018-05-27T06:00:36.556Z,958.78
2018-05-27T06:03:02.849Z,958.74
2018-05-27T06:05:29.198Z,958.82
2018-05-27T06:07:55.483Z,958.86
2018-05-27T06:10:21.773Z,958.84
2018-05-27T06:12:48.084Z,958.73
2018-05-27T06:15:14.387Z,958.74
2018-05-27T06:17:40.671Z,958.71
2018-05-27T06:20:06.965Z,958.68
2018-05-27T06:22:33.263Z,958.65
2018-05-27T06:24:59.556Z,958.63
2018-05-27T06:27:25.851Z,958.69
2018-05-27T06:29:52.142Z,958.63
2018-05-27T06:32:18.438Z,958.69
2018-05-27T06:34:44.732Z,958.67
2018-05-27T06:37:11.027Z,958.72
2018-05-27T06:39:37.327Z,958.66
2018-05-27T06:42:03.624Z,958.68
2018-05-27T06:44:29.980Z,958.68
2018-05-27T06:46:56.269Z,958.62
2018-05-27T06:49:22.561Z,958.71
2018-05-27T06:51:48.932Z,958.67
2018-05-27T06:54:15.190Z,958.62
2018-05-27T06:56:41.491Z,958.61
2018-05-27T06:59:07.785Z,958.69
2018-05-27T07:01:34.077Z,958.70
2018-05-27T07:04:00.409Z,958.68
2018-05-27T07:06:26.740Z,958.68
2018-05-27T07:08:53.036Z,958.69
2018-05-27T07:11:19.398Z,958.77
2018-05-27T07:13:45.684Z,958.67
2018-05-27T07:16:11.983Z,958.73
2018-05-27T07:18:38.280Z,958.72
2018-05-27T07:21:04.615Z,958.80
2018-05-27T07:23:30.903Z,958.75
2018-05-27T07:25:57.237Z,958.77
2018-05-27T07:28:23.529Z,958.75
2018-05-27T07:30:49.876Z,958.80
2018-05-27T07:33:16.161Z,958.79
2018-05-27T07:35:42.457Z,958.82
2018-05-27T07:38:08.751Z,958.84
2018-05-27T07:40:35.044Z,958.83
2018-05-27T07:43:01.329Z,958.92
2018-05-27T07:45:27.665Z,958.88
2018-05-27T07:47:53.955Z,958.94
2018-05-27T07:50:20.246Z,958.96
2018-05-27T07:52:46.536Z,958.96
2018-05-27T07:55:12.825Z,959.02
2018-05-27T07:57:39.122Z,959.01
2018-05-27T08:00:05.456Z,958.99
2018-05-27T08:02:31.747Z,958.99
2018-05-27T08:04:58.049Z,959.00
2018-05-27T08:07:24.384Z,959.05
2018-05-27T08:09:50.678Z,959.05
2018-05-27T08:12:16.969Z,958.98
2018-05-27T08:14:43.276Z,958.96
2018-05-27T08:17:09.574Z,958.94
2018-05-27T08:19:35.868Z,959.02
2018-05-27T08:22:02.169Z,958.98
2018-05-27T08:24:28.451Z,958.94
2018-05-27T08:26:54.749Z,958.98
2018-05-27T08:29:21.042Z,959.00
2018-05-27T08:31:47.332Z,958.98
2018-05-27T08:34:13.650Z,958.93
2018-05-27T08:36:39.931Z,958.93
2018-05-27T08:39:06.225Z,958.86
2018-05-27T08:41:32.518Z,958.92
2018-05-27T08:43:58.813Z,958.81
2018-05-27T08:46:25.113Z,958.91
2018-05-27T08:48:51.445Z,958.96
2018-05-27T08:51:17.707Z,958.90
2018-05-27T08:53:44.001Z,958.98
2018-05-27T08:56:10.304Z,958.98
2018-05-27T08:58:36.608Z,958.95
2018-05-27T09:01:02.891Z,958.97
2018-05-27T09:03:29.188Z,958.94
2018-05-27T09:05:55.529Z,958.86
2018-05-27T09:08:21.823Z,958.92
2018-05-27T09:10:48.128Z,958.90
2018-05-27T09:13:14.423Z,958.93
2018-05-27T09:15:40.718Z,958.93
2018-05-27T09:18:07.013Z,958.92
2018-05-27T09:20:33.358Z,958.83
2018-05-27T09:22:59.657Z,958.80
2018-05-27T09:25:25.945Z,958.74
2018-05-27T09:27:52.241Z,958.81
2018-05-27T09:30:18.541Z,958.83
2018-05-27T09:32:44.838Z,958.78
2018-05-27T09:35:11.134Z,958.76
2018-05-27T09:37:37.432Z,958.81
2018-05-27T09:40:03.728Z,958.79
2018-05-27T09:42:30.019Z,958.86
2018-05-27T09:44:56.325Z,958.77
2018-05-27T09:47:22.648Z,958.72
2018-05-27T09:49:49.047Z,958.74
2018-05-27T09:52:15.355Z,958.78
2018-05-27T09:54:41.654Z,958.75
2018-05-27T09:57:07.945Z,958.76
2018-05-27T09:59:34.234Z,958.81
2018-05-27T10:02:00.523Z,958.81
2018-05-27T10:04:26.822Z,958.69
2018-05-27T10:06:53.106Z,958.70
2018-05-27T10:09:19.391Z,958.80
2018-05-27T10:11:45.690Z,958.72
2018-05-27T10:14:12.000Z,958.80
2018-05-27T10:16:38.284Z,958.78
2018-05-27T10:19:04.649Z,958.71
2018-05-27T10:21:30.869Z,958.64
2018-05-27T10:23:57.175Z,958.67
2018-05-27T10:26:23.512Z,958.61
2018-05-27T10:28:49.837Z,958.59
2018-05-27T10:31:16.124Z,958.67
2018-05-27T10:33:42.428Z,958.72
2018-05-27T10:36:08.705Z,958.67
2018-05-27T10:38:35.037Z,958.62
2018-05-27T10:41:01.368Z,958.64
2018-05-27T10:43:27.664Z,958.58
2018-05-27T10:45:53.996Z,958.51
2018-05-27T10:48:20.290Z,958.58
2018-05-27T10:50:46.587Z,958.59
2018-05-27T10:53:12.887Z,958.64
2018-05-27T10:55:39.199Z,958.58
2018-05-27T10:58:05.476Z,958.53
2018-05-27T11:00:31.809Z,958.57
2018-05-27T11:02:58.158Z,958.57
2018-05-27T11:05:24.479Z,958.57
2018-05-27T11:07:50.800Z,958.46
2018-05-27T11:10:17.089Z,958.43
2018-05-27T11:12:43.387Z,958.51
2018-05-27T11:15:09.668Z,958.58
2018-05-27T11:17:35.992Z,958.44
2018-05-27T11:20:02.282Z,958.37
2018-05-27T11:22:28.566Z,958.27
2018-05-27T11:24:54.857Z,958.36
2018-05-27T11:27:21.151Z,958.40
2018-05-27T11:29:47.451Z,958.32
2018-05-27T11:32:13.746Z,958.31
2018-05-27T11:34:40.036Z,958.30
2018-05-27T11:37:06.362Z,958.35
2018-05-27T11:39:32.622Z,958.26
2018-05-27T11:41:58.916Z,958.22
2018-05-27T11:44:25.205Z,958.24
2018-05-27T11:46:51.497Z,958.14
2018-05-27T11:49:17.788Z,958.14
2018-05-27T11:51:44.075Z,957.99
2018-05-27T11:54:10.447Z,958.01
2018-05-27T11:56:36.674Z,957.98
2018-05-27T11:59:02.976Z,957.97
2018-05-27T12:01:29.275Z,957.96
2018-05-27T12:03:55.560Z,957.92
2018-05-27T12:06:21.853Z,957.94
2018-05-27T12:08:48.180Z,957.88
2018-05-27T12:11:14.471Z,957.98
2018-05-27T12:13:40.763Z,957.91
2018-05-27T12:16:07.057Z,957.89
2018-05-27T12:18:33.357Z,957.87
2018-05-27T12:20:59.648Z,957.91
2018-05-27T12:23:25.943Z,957.91
2018-05-27T12:25:52.259Z,957.74
2018-05-27T12:28:18.573Z,957.70
2018-05-27T12:30:44.904Z,957.68
2018-05-27T12:33:11.250Z,957.68
2018-05-27T12:35:37.553Z,957.62
2018-05-27T12:38:03.843Z,957.57
2018-05-27T12:40:30.137Z,957.59
2018-05-27T12:42:56.440Z,957.57
2018-05-27T12:45:22.737Z,957.47
2018-05-27T12:47:49.033Z,957.45
2018-05-27T12:50:15.328Z,957.37
2018-05-27T12:52:41.618Z,957.28
2018-05-27T12:55:07.915Z,957.26
2018-05-27T12:57:34.233Z,957.30
2018-05-27T13:00:00.561Z,957.24
2018-05-27T13:02:26.812Z,957.17
2018-05-27T13:04:53.115Z,957.19
2018-05-27T13:07:19.406Z,957.09
2018-05-27T13:09:45.728Z,957.18
2018-05-27T13:12:12.027Z,957.06
2018-05-27T13:14:38.316Z,957.08
2018-05-27T13:17:04.609Z,957.05
2018-05-27T13:19:30.905Z,957.03
2018-05-27T13:21:57.199Z,957.04
2018-05-27T13:24:23.499Z,957.08
2018-05-27T13:26:49.786Z,957.10
2018-05-27T13:29:16.139Z,957.05
2018-05-27T13:31:42.428Z,957.16
2018-05-27T13:34:08.724Z,957.18
2018-05-27T13:36:35.064Z,957.18
2018-05-27T13:39:01.352Z,957.17
2018-05-27T13:41:27.641Z,957.20
2018-05-27T13:43:53.935Z,957.26
2018-05-27T13:46:20.231Z,957.17
2018-05-27T13:48:46.524Z,957.05
2018-05-27T13:51:12.813Z,957.14
2018-05-27T13:53:39.108Z,957.14
2018-05-27T13:56:05.395Z,957.13
2018-05-27T13:58:31.683Z,957.10
2018-05-27T14:00:58.040Z,957.19
2018-05-27T14:03:24.413Z,957.18
2018-05-27T14:05:50.625Z,957.23
2018-05-27T14:08:16.916Z,957.13
2018-05-27T14:10:43.231Z,957.15
2018-05-27T14:13:09.516Z,957.17
2018-05-27T14:15:35.851Z,957.18
2018-05-27T14:18:02.140Z,957.17
2018-05-27T14:20:28.436Z,957.09
2018-05-27T14:22:54.724Z,957.08
2018-05-27T14:25:21.008Z,957.10
2018-05-27T14:27:47.296Z,957.13
2018-05-27T14:30:13.588Z,957.01
2018-05-27T14:32:39.907Z,957.02
2018-05-27T14:35:06.203Z,956.99
2018-05-27T14:37:32.496Z,956.96
2018-05-27T14:39:58.787Z,956.98
2018-05-27T14:42:25.081Z,956.95
2018-05-27T14:44:51.394Z,956.94
2018-05-27T14:47:17.671Z,956.91
2018-05-27T14:49:43.964Z,956.91
2018-05-27T14:52:10.261Z,956.95
2018-05-27T14:54:36.559Z,956.96
2018-05-27T14:57:02.853Z,957.02
2018-05-27T14:59:29.145Z,956.99
2018-05-27T15:01:55.442Z,956.98
2018-05-27T15:04:21.748Z,956.95
2018-05-27T15:06:48.042Z,957.01
2018-05-27T15:09:14.340Z,956.96
2018-05-27T15:11:40.635Z,956.96
2018-05-27T15:14:06.967Z,957.01
2018-05-27T15:16:33.256Z,956.99
2018-05-27T15:18:59.551Z,957.00
2018-05-27T15:21:25.883Z,957.07
2018-05-27T15:23:53.557Z,957.06
2018-05-27T15:26:20.041Z,957.07
2018-05-27T15:28:46.296Z,957.09
2018-05-27T15:31:12.588Z,957.11
2018-05-27T15:33:38.875Z,957.10
2018-05-27T15:36:05.177Z,957.12
2018-05-27T15:38:31.470Z,957.22
2018-05-27T15:40:57.792Z,957.16
2018-05-27T15:43:24.084Z,957.17
2018-05-27T15:45:50.377Z,957.14
2018-05-27T15:48:16.673Z,957.16
2018-05-27T15:50:42.961Z,957.14
2018-05-27T15:53:09.246Z,957.10
2018-05-27T15:55:35.540Z,957.13
2018-05-27T15:58:01.833Z,957.13
2018-05-27T16:00:28.129Z,957.25
2018-05-27T16:02:54.415Z,957.20
2018-05-27T16:05:20.760Z,957.24
2018-05-27T16:07:47.044Z,957.21
2018-05-27T16:10:13.345Z,957.17
2018-05-27T16:12:39.630Z,957.21
2018-05-27T16:15:05.941Z,957.16
2018-05-27T16:17:32.259Z,957.16
2018-05-27T16:19:58.560Z,957.07
2018-05-27T16:22:24.885Z,957.15
2018-05-27T16:24:51.219Z,957.20
2018-05-27T16:27:17.609Z,957.23
2018-05-27T16:29:43.859Z,957.26
2018-05-27T16:32:10.151Z,957.26
2018-05-27T16:34:36.472Z,957.27
2018-05-27T16:37:02.759Z,957.33
2018-05-27T16:39:29.051Z,957.29
2018-05-27T16:41:55.341Z,957.30
2018-05-27T16:44:21.639Z,957.32
2018-05-27T16:46:47.927Z,957.32
2018-05-27T16:49:14.225Z,957.35
2018-05-27T16:51:40.553Z,957.38
2018-05-27T16:54:06.841Z,957.36
2018-05-27T16:56:33.138Z,957.40
2018-05-27T16:58:59.438Z,957.45
2018-05-27T17:01:25.781Z,957.53
2018-05-27T17:03:52.036Z,957.55
2018-05-27T17:06:18.335Z,957.52
2018-05-27T17:08:44.627Z,957.55
2018-05-27T17:11:10.917Z,957.57
2018-05-27T17:13:37.217Z,957.65
2018-05-27T17:16:03.510Z,957.64
2018-05-27T17:18:29.797Z,957.67
2018-05-27T17:20:56.125Z,957.65
2018-05-27T17:23:22.397Z,957.68
2018-05-27T17:25:48.737Z,957.75
2018-05-27T17:28:15.080Z,957.75
2018-05-27T17:30:41.333Z,957.82
2018-05-27T17:33:07.667Z,957.93
2018-05-27T17:35:33.966Z,957.86
2018-05-27T17:38:00.258Z,957.82
2018-05-27T17:40:26.550Z,957.88
2018-05-27T17:42:52.850Z,957.93
2018-05-27T17:45:19.140Z,957.92
2018-05-27T17:47:45.479Z,957.99
2018-05-27T17:50:11.768Z,957.96
2018-05-27T17:52:38.061Z,957.97
2018-05-27T17:55:06.606Z,957.91
2018-05-27T17:57:32.991Z,957.99
2018-05-27T17:59:59.235Z,958.02
2018-05-27T18:02:25.534Z,957.99
2018-05-27T18:04:51.825Z,957.97
2018-05-27T18:07:18.119Z,958.10
2018-05-27T18:09:44.411Z,958.08
2018-05-27T18:12:10.705Z,958.08
2018-05-27T18:14:36.992Z,958.11
2018-05-27T18:17:03.331Z,958.17
2018-05-27T18:19:29.621Z,958.19
2018-05-27T18:21:55.911Z,958.13
2018-05-27T18:24:22.202Z,958.19
2018-05-27T18:26:48.502Z,958.18
2018-05-27T18:29:14.781Z,958.19
2018-05-27T18:31:41.083Z,958.16
2018-05-27T18:34:07.370Z,958.10
2018-05-27T18:36:33.660Z,958.12
2018-05-27T18:39:00.002Z,958.16
2018-05-27T18:41:26.296Z,958.13
2018-05-27T18:43:52.592Z,958.23
2018-05-27T18:46:18.928Z,958.13
2018-05-27T18:48:45.225Z,958.14
2018-05-27T18:51:11.560Z,958.12
2018-05-27T18:53:37.857Z,958.10
2018-05-27T18:56:04.201Z,958.11
2018-05-27T18:58:30.497Z,958.11
2018-05-27T19:00:56.833Z,958.11
2018-05-27T19:03:23.127Z,958.10
2018-05-27T19:05:49.483Z,958.20
2018-05-27T19:08:15.751Z,958.20
2018-05-27T19:10:42.038Z,958.17
2018-05-27T19:13:08.434Z,958.25
2018-05-27T19:15:34.718Z,958.28
2018-05-27T19:18:01.012Z,958.38
2018-05-27T19:20:27.301Z,958.37
2018-05-27T19:22:53.592Z,958.30
2018-05-27T19:25:19.881Z,958.35
2018-05-27T19:27:46.170Z,958.42
2018-05-27T19:30:12.499Z,958.45
2018-05-27T19:32:38.792Z,958.53
2018-05-27T19:35:05.075Z,958.52
2018-05-27T19:37:31.379Z,958.55
2018-05-27T19:39:57.677Z,958.52
2018-05-27T19:42:24.007Z,958.47
2018-05-27T19:44:50.266Z,958.46
2018-05-27T19:47:16.608Z,958.52
2018-05-27T19:49:42.896Z,958.58
2018-05-27T19:52:09.195Z,958.52
2018-05-27T19:54:35.506Z,958.56
2018-05-27T19:57:01.797Z,958.51
2018-05-27T19:59:28.090Z,958.49
2018-05-27T20:01:54.385Z,958.53
2018-05-27T20:04:20.703Z,958.52
2018-05-27T20:06:47.007Z,958.54
2018-05-27T20:09:13.300Z,958.49
2018-05-27T20:11:39.609Z,958.49
2018-05-27T20:14:05.906Z,958.53
2018-05-27T20:16:32.191Z,958.65
2018-05-27T20:18:58.492Z,958.69
2018-05-27T20:21:24.791Z,958.63
2018-05-27T20:23:51.079Z,958.61
2018-05-27T20:26:17.617Z,958.66
2018-05-27T20:28:44.105Z,958.74
2018-05-27T20:31:10.363Z,958.68
2018-05-27T20:33:36.663Z,958.76
2018-05-27T20:36:02.951Z,958.73
2018-05-27T20:38:29.239Z,958.77
2018-05-27T20:40:55.567Z,958.79
2018-05-27T20:43:21.869Z,958.81
2018-05-27T20:45:48.161Z,958.75
2018-05-27T20:48:14.463Z,958.78
2018-05-27T20:50:40.813Z,958.76
2018-05-27T20:53:07.116Z,958.77
2018-05-27T20:55:33.439Z,958.69
2018-05-27T20:57:59.735Z,958.77
2018-05-27T21:00:26.044Z,958.80
2018-05-27T21:02:52.343Z,958.80
2018-05-27T21:05:18.632Z,958.84
2018-05-27T21:07:44.925Z,958.86
2018-05-27T21:10:11.211Z,958.99
2018-05-27T21:12:37.511Z,958.95
2018-05-27T21:15:03.815Z,958.92
2018-05-27T21:17:30.111Z,958.93
2018-05-27T21:19:56.407Z,958.96
2018-05-27T21:22:22.883Z,959.00
2018-05-27T21:24:49.232Z,958.98
2018-05-27T21:27:15.536Z,958.93
2018-05-27T21:29:41.832Z,958.99
2018-05-27T21:32:08.147Z,958.96
2018-05-27T21:34:34.439Z,958.86
2018-05-27T21:37:00.774Z,958.87
2018-05-27T21:39:27.077Z,958.88
2018-05-27T21:41:53.370Z,959.01
2018-05-27T21:44:19.667Z,959.05
2018-05-27T21:46:45.961Z,959.02
2018-05-27T21:49:12.251Z,958.95
2018-05-27T21:51:38.547Z,958.95
2018-05-27T21:54:04.843Z,958.93
2018-05-27T21:56:31.133Z,958.90
2018-05-27T21:58:57.421Z,958.95
2018-05-27T22:01:23.717Z,958.90
2018-05-27T22:03:50.006Z,958.87
2018-05-27T22:06:16.331Z,958.90
2018-05-27T22:08:42.596Z,958.84
2018-05-27T22:11:08.892Z,958.83
2018-05-27T22:13:35.183Z,958.83
2018-05-27T22:16:01.478Z,958.78
2018-05-27T22:18:27.796Z,958.65
2018-05-27T22:20:54.084Z,958.66
2018-05-27T22:23:20.376Z,958.58
2018-05-27T22:25:46.663Z,958.64
2018-05-27T22:28:12.958Z,958.62
2018-05-27T22:30:39.254Z,958.61
2018-05-27T22:33:05.564Z,958.72
2018-05-27T22:35:31.856Z,958.73
2018-05-27T22:37:58.148Z,958.76
2018-05-27T22:40:24.444Z,958.79
2018-05-27T22:42:50.771Z,958.82
2018-05-27T22:45:17.068Z,958.83
2018-05-27T22:47:43.357Z,958.79
2018-05-27T22:50:09.647Z,958.76
2018-05-27T22:52:35.936Z,958.78
2018-05-27T22:55:02.268Z,958.78
2018-05-27T22:57:28.555Z,958.81
2018-05-27T22:59:54.851Z,958.73
2018-05-27T23:02:21.145Z,958.77
2018-05-27T23:04:47.437Z,958.68
2018-05-27T23:07:13.732Z,958.63
2018-05-27T23:09:40.056Z,958.68
2018-05-27T23:12:06.313Z,958.64
2018-05-27T23:14:32.607Z,958.65
2018-05-27T23:16:58.944Z,958.65
2018-05-27T23:19:26.307Z,958.58
2018-05-27T23:21:52.602Z,958.56
2018-05-27T23:24:18.910Z,958.59
2018-05-27T23:26:45.320Z,958.63
2018-05-27T23:29:11.617Z,958.62
2018-05-27T23:31:37.912Z,958.52
2018-05-27T23:34:04.239Z,958.50
2018-05-27T23:36:30.531Z,958.45
2018-05-27T23:38:56.828Z,958.40
2018-05-27T23:41:23.125Z,958.41
2018-05-27T23:43:49.420Z,958.36
2018-05-27T23:46:15.717Z,958.40
2018-05-27T23:48:42.011Z,958.36
2018-05-27T23:51:08.305Z,958.37
2018-05-27T23:53:34.595Z,958.42
2018-05-27T23:56:00.938Z,958.42
2018-05-27T23:58:27.227Z,958.42
